createdAt,value
2017-07-09T00:01:09.067Z,69.95
2017-07-09T00:03:34.966Z,69.86
2017-07-09T00:06:00.851Z,69.77
2017-07-09T00:08:26.749Z,70.08
2017-07-09T00:10:52.660Z,70.53
2017-07-09T00:13:18.578Z,70.47
2017-07-09T00:15:44.445Z,70.09
2017-07-09T00:18:10.400Z,70.53
2017-07-09T00:20:36.275Z,70.94
2017-07-09T00:23:04.234Z,70.83
2017-07-09T00:25:30.186Z,70.96
2017-07-09T00:27:56.074Z,70.87
2017-07-09T00:30:21.998Z,71.42
2017-07-09T00:32:51.863Z,71.50
2017-07-09T00:35:18.645Z,72.21
2017-07-09T00:37:44.533Z,71.92
2017-07-09T00:40:10.441Z,71.30
2017-07-09T00:42:36.306Z,71.21
2017-07-09T00:45:02.198Z,71.27
2017-07-09T00:47:43.040Z,71.16
2017-07-09T00:50:08.978Z,71.35
2017-07-09T00:52:35.050Z,71.38
2017-07-09T00:55:00.967Z,71.92
2017-07-09T00:57:26.928Z,72.01
2017-07-09T00:59:52.814Z,72.23
2017-07-09T01:02:18.705Z,71.99
2017-07-09T01:04:44.798Z,73.31
2017-07-09T01:07:10.755Z,72.91
2017-07-09T01:09:36.689Z,73.02
2017-07-09T01:12:02.602Z,73.04
2017-07-09T01:14:28.528Z,73.29
2017-07-09T01:16:54.437Z,73.36
2017-07-09T01:19:20.345Z,73.53
2017-07-09T01:21:46.220Z,73.93
2017-07-09T01:24:12.114Z,73.67
2017-07-09T01:26:38.037Z,73.33
2017-07-09T01:29:03.970Z,73.69
2017-07-09T01:31:29.878Z,73.92
2017-07-09T01:33:55.793Z,73.51
2017-07-09T01:36:21.714Z,73.36
2017-07-09T01:38:54.759Z,73.85
2017-07-09T01:41:20.741Z,73.78
2017-07-09T01:43:46.673Z,74.09
2017-07-09T01:46:12.574Z,74.02
2017-07-09T01:48:38.507Z,74.06
2017-07-09T01:51:04.433Z,74.09
2017-07-09T01:53:30.361Z,74.40
2017-07-09T01:55:56.311Z,74.79
2017-07-09T01:58:22.239Z,73.06
2017-07-09T02:00:48.115Z,74.13
2017-07-09T02:03:13.952Z,74.93
2017-07-09T02:05:39.832Z,74.76
2017-07-09T02:08:05.717Z,74.17
2017-07-09T02:10:31.589Z,74.03
2017-07-09T02:12:57.447Z,73.81
2017-07-09T02:15:23.373Z,74.12
2017-07-09T02:17:49.236Z,74.01
2017-07-09T02:20:15.091Z,74.05
2017-07-09T02:22:40.940Z,74.52
2017-07-09T02:25:06.846Z,73.93
2017-07-09T02:27:32.780Z,74.29
2017-07-09T02:29:58.694Z,73.87
2017-07-09T02:32:24.509Z,74.25
2017-07-09T02:34:50.373Z,73.92
2017-07-09T02:37:16.196Z,74.30
2017-07-09T02:39:42.012Z,73.90
2017-07-09T02:42:07.863Z,74.48
2017-07-09T02:44:33.928Z,73.96
2017-07-09T02:46:59.828Z,73.30
2017-07-09T02:49:26.263Z,72.93
2017-07-09T02:51:52.132Z,71.35
2017-07-09T02:54:17.951Z,73.10
2017-07-09T02:56:43.781Z,75.40
2017-07-09T02:59:09.776Z,69.34
2017-07-09T03:01:35.627Z,67.23
2017-07-09T03:04:01.491Z,69.56
2017-07-09T03:06:27.319Z,67.36
2017-07-09T03:08:53.223Z,68.47
2017-07-09T03:11:19.100Z,68.08
2017-07-09T03:13:44.938Z,67.19
2017-07-09T03:16:10.765Z,66.61
2017-07-09T03:18:36.629Z,66.58
2017-07-09T03:21:02.613Z,67.61
2017-07-09T03:23:28.568Z,65.60
2017-07-09T03:25:54.428Z,65.63
2017-07-09T03:28:20.251Z,67.10
2017-07-09T03:30:46.083Z,65.76
2017-07-09T03:33:11.930Z,64.69
2017-07-09T03:35:37.815Z,64.63
2017-07-09T03:38:03.634Z,65.63
2017-07-09T03:40:29.480Z,66.22
2017-07-09T03:42:55.306Z,64.87
2017-07-09T03:45:21.243Z,67.24
2017-07-09T03:47:47.028Z,68.03
2017-07-09T03:50:12.823Z,68.55
2017-07-09T03:52:38.604Z,70.35
2017-07-09T03:55:04.434Z,69.29
2017-07-09T03:57:30.267Z,66.41
2017-07-09T04:00:03.109Z,67.65
2017-07-09T04:04:54.821Z,68.72
2017-07-09T04:07:20.617Z,69.66
2017-07-09T04:09:46.519Z,71.71
2017-07-09T04:12:12.307Z,72.39
2017-07-09T04:14:38.166Z,77.96
2017-07-09T04:17:03.979Z,77.12
2017-07-09T04:19:29.798Z,77.40
2017-07-09T04:21:55.622Z,78.05
2017-07-09T04:24:21.413Z,78.21
2017-07-09T04:26:47.270Z,75.59
2017-07-09T04:29:13.330Z,77.39
2017-07-09T04:31:39.225Z,77.08
2017-07-09T04:34:05.090Z,78.34
2017-07-09T04:36:30.892Z,79.27
2017-07-09T04:38:56.683Z,78.93
2017-07-09T04:41:22.508Z,79.59
2017-07-09T04:43:48.393Z,80.21
2017-07-09T04:46:14.266Z,78.78
2017-07-09T04:48:40.154Z,79.12
2017-07-09T04:51:07.149Z,76.01
2017-07-09T04:53:33.027Z,76.83
2017-07-09T04:55:59.452Z,77.26
2017-07-09T04:58:25.329Z,77.85
2017-07-09T05:00:51.185Z,78.24
2017-07-09T05:03:16.998Z,75.30
2017-07-09T05:05:42.819Z,75.15
2017-07-09T05:08:08.634Z,74.85
2017-07-09T05:10:34.474Z,75.86
2017-07-09T05:13:00.274Z,75.78
2017-07-09T05:15:26.093Z,75.21
2017-07-09T05:17:51.889Z,76.93
2017-07-09T05:20:17.681Z,74.90
2017-07-09T05:22:44.097Z,75.18
2017-07-09T05:25:09.899Z,76.13
2017-07-09T05:27:35.765Z,75.24
2017-07-09T05:30:01.593Z,76.33
2017-07-09T05:32:27.393Z,76.76
2017-07-09T05:34:53.375Z,78.30
2017-07-09T05:37:19.214Z,79.33
2017-07-09T05:39:45.053Z,78.98
2017-07-09T05:42:10.874Z,78.58
2017-07-09T05:44:36.694Z,78.21
2017-07-09T05:47:02.554Z,77.19
2017-07-09T05:49:28.601Z,76.24
2017-07-09T05:51:54.564Z,75.95
2017-07-09T05:54:20.410Z,76.64
2017-07-09T05:56:46.243Z,75.72
2017-07-09T05:59:12.098Z,73.73
2017-07-09T06:01:38.079Z,73.64
2017-07-09T06:04:03.923Z,73.80
2017-07-09T06:06:29.723Z,74.06
2017-07-09T06:08:55.555Z,71.29
2017-07-09T06:11:21.449Z,71.92
2017-07-09T06:13:48.409Z,71.65
2017-07-09T06:16:14.225Z,70.46
2017-07-09T07:02:18.675Z,65.80
2017-07-09T07:04:45.398Z,66.25
2017-07-09T07:07:11.213Z,66.44
2017-07-09T07:09:37.058Z,65.82
2017-07-09T07:12:02.944Z,65.36
2017-07-09T07:14:28.742Z,66.34
2017-07-09T07:16:54.544Z,66.07
2017-07-09T07:19:20.381Z,65.45
2017-07-09T07:21:46.198Z,65.45
2017-07-09T07:24:11.988Z,64.93
2017-07-09T07:26:38.894Z,64.76
2017-07-09T07:29:04.750Z,64.52
2017-07-09T07:31:30.613Z,64.85
2017-07-09T07:33:56.399Z,65.62
2017-07-09T07:36:22.367Z,66.04
2017-07-09T07:38:48.250Z,66.49
2017-07-09T07:41:14.061Z,65.63
2017-07-09T07:43:39.877Z,66.52
2017-07-09T07:46:05.705Z,65.10
2017-07-09T07:48:31.582Z,65.39
2017-07-09T07:50:57.496Z,64.77
2017-07-09T07:53:23.504Z,64.82
2017-07-09T07:55:49.433Z,64.31
2017-07-09T07:58:15.428Z,64.01
2017-07-09T08:00:41.239Z,63.32
2017-07-09T08:03:07.103Z,62.18
2017-07-09T08:05:32.919Z,62.09
2017-07-09T08:07:59.285Z,63.25
2017-07-09T08:10:25.202Z,62.27
2017-07-09T08:12:51.014Z,61.94
2017-07-09T08:15:16.841Z,61.58
2017-07-09T08:17:42.684Z,61.24
2017-07-09T08:20:08.680Z,60.72
2017-07-09T08:22:34.499Z,60.06
2017-07-09T08:25:00.314Z,59.13
2017-07-09T08:27:26.238Z,58.83
2017-07-09T08:29:52.123Z,57.42
2017-07-09T08:32:18.170Z,58.18
2017-07-09T08:34:44.075Z,57.84
2017-07-09T08:37:09.910Z,59.69
2017-07-09T08:39:35.768Z,59.46
2017-07-09T08:42:01.594Z,59.25
2017-07-09T08:44:27.417Z,60.57
2017-07-09T08:46:53.231Z,61.52
2017-07-09T08:49:19.105Z,62.33
2017-07-09T08:51:44.938Z,62.51
2017-07-09T08:54:10.892Z,62.44
2017-07-09T08:56:36.727Z,62.04
2017-07-09T08:59:02.647Z,64.16
2017-07-09T09:01:28.461Z,64.27
2017-07-09T09:03:55.235Z,65.27
2017-07-09T09:06:21.247Z,65.59
2017-07-09T09:08:47.163Z,65.77
2017-07-09T09:11:13.151Z,65.05
2017-07-09T09:13:39.091Z,64.43
2017-07-09T09:16:04.934Z,63.62
2017-07-09T09:18:30.875Z,62.83
2017-07-09T09:20:56.756Z,62.93
2017-07-09T09:23:22.570Z,62.13
2017-07-09T09:25:48.427Z,61.79
2017-07-09T09:28:14.235Z,60.94
2017-07-09T09:30:40.150Z,59.72
2017-07-09T09:33:06.091Z,59.76
2017-07-09T09:35:31.997Z,57.36
2017-07-09T09:37:57.816Z,56.76
2017-07-09T09:40:23.672Z,55.89
2017-07-09T09:42:49.464Z,55.49
2017-07-09T09:45:15.315Z,55.26
2017-07-09T09:47:41.118Z,55.77
2017-07-09T09:50:07.050Z,53.98
2017-07-09T09:52:32.934Z,53.96
2017-07-09T09:54:58.839Z,51.92
2017-07-09T09:57:24.787Z,52.09
2017-07-09T09:59:50.649Z,51.60
2017-07-09T10:02:16.453Z,50.18
2017-07-09T10:04:42.333Z,51.37
2017-07-09T10:07:08.178Z,51.51
2017-07-09T10:09:34.042Z,50.58
2017-07-09T10:11:59.971Z,50.51
2017-07-09T10:14:25.792Z,50.64
2017-07-09T10:16:51.637Z,51.37
2017-07-09T10:19:17.513Z,51.37
2017-07-09T10:21:43.340Z,49.61
2017-07-09T10:24:09.159Z,49.54
2017-07-09T10:26:35.035Z,50.36
2017-07-09T10:29:00.906Z,49.27
2017-07-09T10:31:26.732Z,49.24
2017-07-09T10:33:52.570Z,48.56
2017-07-09T10:36:18.490Z,47.27
2017-07-09T10:38:44.433Z,46.86
2017-07-09T10:41:10.259Z,47.08
2017-07-09T10:43:36.081Z,46.41
2017-07-09T10:46:01.947Z,45.63
2017-07-09T10:48:27.790Z,44.99
2017-07-09T10:50:53.701Z,44.74
2017-07-09T10:53:19.621Z,44.58
2017-07-09T10:55:45.569Z,43.78
2017-07-09T10:58:11.452Z,45.47
2017-07-09T11:00:37.421Z,44.81
2017-07-09T11:03:03.299Z,43.88
2017-07-09T11:05:29.232Z,42.26
2017-07-09T11:07:55.116Z,40.82
2017-07-09T11:10:20.960Z,40.97
2017-07-09T11:12:46.935Z,41.16
2017-07-09T11:15:12.804Z,40.21
2017-07-09T11:17:38.737Z,38.70
2017-07-09T11:20:04.632Z,38.29
2017-07-09T11:22:30.461Z,38.78
2017-07-09T11:24:56.311Z,39.45
2017-07-09T11:27:22.177Z,37.20
2017-07-09T11:29:48.034Z,38.16
2017-07-09T11:32:13.984Z,37.34
2017-07-09T11:34:39.879Z,37.89
2017-07-09T11:37:05.791Z,37.43
2017-07-09T11:39:31.726Z,38.21
2017-07-09T11:41:57.602Z,37.80
2017-07-09T11:44:23.460Z,38.10
2017-07-09T11:46:49.374Z,36.88
2017-07-09T11:49:15.240Z,35.16
2017-07-09T11:51:41.093Z,37.41
2017-07-09T11:54:06.932Z,40.26
2017-07-09T11:56:33.025Z,39.57
2017-07-09T11:58:58.889Z,40.76
2017-07-09T12:01:24.780Z,40.41
2017-07-09T12:03:50.627Z,41.86
2017-07-09T12:06:17.271Z,39.46
2017-07-09T12:08:43.212Z,38.19
2017-07-09T12:11:09.099Z,37.13
2017-07-09T12:13:35.117Z,37.81
2017-07-09T12:16:01.049Z,37.29
2017-07-09T12:18:26.974Z,38.13
2017-07-09T12:20:52.916Z,37.56
2017-07-09T12:23:18.793Z,37.37
2017-07-09T12:25:44.664Z,37.48
2017-07-09T12:28:10.729Z,36.01
2017-07-09T12:30:36.576Z,35.85
2017-07-09T12:33:02.422Z,36.36
2017-07-09T12:35:28.329Z,37.20
2017-07-09T12:37:54.316Z,37.87
2017-07-09T12:40:20.144Z,37.41
2017-07-09T12:42:46.094Z,38.69
2017-07-09T12:45:12.049Z,39.20
2017-07-09T12:47:37.921Z,42.43
2017-07-09T12:50:03.850Z,45.64
2017-07-09T12:52:29.749Z,51.36
2017-07-09T12:54:55.583Z,58.85
2017-07-09T12:57:21.486Z,64.13
2017-07-09T12:59:47.487Z,68.72
2017-07-09T13:02:13.336Z,81.44
2017-07-09T13:04:39.250Z,90.21
2017-07-09T13:07:05.114Z,91.95
2017-07-09T13:09:30.934Z,89.27
2017-07-09T13:11:56.788Z,83.61
2017-07-09T13:14:22.833Z,69.06
2017-07-09T13:16:48.748Z,77.14
2017-07-09T13:19:14.569Z,80.90
2017-07-09T13:21:40.406Z,76.99
2017-07-09T13:24:06.216Z,77.99
2017-07-09T13:26:32.073Z,71.16
2017-07-09T13:28:57.954Z,71.85
2017-07-09T13:31:23.866Z,76.65
2017-07-09T13:33:49.690Z,80.34
2017-07-09T13:36:15.549Z,77.80
2017-07-09T13:38:41.394Z,79.17
2017-07-09T13:41:07.204Z,74.43
2017-07-09T13:43:33.047Z,73.17
2017-07-09T13:45:58.852Z,64.82
2017-07-09T13:48:24.673Z,70.88
2017-07-09T13:50:50.507Z,75.20
2017-07-09T13:53:16.305Z,72.18
2017-07-09T13:55:42.100Z,73.29
2017-07-09T13:58:08.186Z,72.15
2017-07-09T14:00:34.117Z,71.97
2017-07-09T14:02:59.953Z,60.12
2017-07-09T14:05:26.880Z,63.14
2017-07-09T14:07:52.780Z,61.60
2017-07-09T14:10:18.595Z,62.56
2017-07-09T14:12:44.446Z,60.64
2017-07-09T14:15:10.342Z,62.29
2017-07-09T14:17:36.174Z,63.50
2017-07-09T14:20:01.998Z,63.74
2017-07-09T14:22:27.895Z,68.38
2017-07-09T14:24:53.789Z,71.73
2017-07-09T14:27:19.649Z,75.90
2017-07-09T14:29:45.546Z,75.62
2017-07-09T14:32:11.391Z,74.94
2017-07-09T14:34:37.328Z,75.47
2017-07-09T14:37:03.222Z,72.37
2017-07-09T14:39:29.089Z,73.89
2017-07-09T14:41:54.915Z,72.95
2017-07-09T14:44:20.747Z,74.95
2017-07-09T14:46:46.569Z,70.98
2017-07-09T14:49:12.421Z,69.91
2017-07-09T14:51:38.389Z,71.65
2017-07-09T14:54:04.245Z,69.37
2017-07-09T14:56:30.987Z,70.76
2017-07-09T14:58:56.850Z,67.28
2017-07-09T15:01:22.669Z,64.07
2017-07-09T15:03:48.489Z,62.46
2017-07-09T15:06:14.327Z,55.72
2017-07-09T15:08:40.154Z,57.14
2017-07-09T15:11:06.001Z,59.67
2017-07-09T15:13:31.801Z,58.97
2017-07-09T15:15:57.856Z,56.69
2017-07-09T15:18:23.776Z,56.82
2017-07-09T15:20:49.700Z,59.88
2017-07-09T15:23:15.615Z,64.67
2017-07-09T15:25:41.526Z,63.91
2017-07-09T15:28:07.345Z,64.81
2017-07-09T15:30:33.135Z,65.55
2017-07-09T15:32:58.980Z,64.44
2017-07-09T15:35:24.822Z,61.21
2017-07-09T15:37:57.642Z,61.21
2017-07-09T15:40:23.515Z,59.89
2017-07-09T15:42:49.362Z,60.05
2017-07-09T15:45:15.173Z,60.09
2017-07-09T15:47:40.996Z,65.47
2017-07-09T15:50:06.969Z,65.99
2017-07-09T15:52:32.820Z,68.47
2017-07-09T15:54:58.805Z,70.68
2017-07-09T15:57:24.704Z,71.24
2017-07-09T15:59:50.551Z,69.32
2017-07-09T16:02:16.415Z,68.02
2017-07-09T16:04:42.317Z,69.35
2017-07-09T16:07:08.135Z,71.58
2017-07-09T16:09:33.980Z,71.63
2017-07-09T16:11:59.782Z,73.16
2017-07-09T16:14:25.717Z,72.37
2017-07-09T16:16:51.636Z,73.76
2017-07-09T16:19:17.521Z,72.14
2017-07-09T16:21:43.559Z,72.93
2017-07-09T16:24:09.512Z,73.07
2017-07-09T16:26:35.324Z,70.99
2017-07-09T16:29:01.206Z,71.37
2017-07-09T16:31:27.039Z,70.78
2017-07-09T16:33:52.957Z,72.94
2017-07-09T16:36:18.828Z,73.08
2017-07-09T16:38:45.008Z,73.80
2017-07-09T16:41:10.896Z,72.46
2017-07-09T16:43:36.724Z,72.43
2017-07-09T16:46:02.975Z,71.56
2017-07-09T16:48:28.906Z,69.88
2017-07-09T16:50:54.884Z,70.00
2017-07-09T16:53:20.737Z,70.74
2017-07-09T16:55:46.637Z,69.80
2017-07-09T16:58:12.449Z,70.97
2017-07-09T17:00:38.421Z,68.49
2017-07-09T17:03:04.271Z,65.42
2017-07-09T17:05:30.062Z,64.22
2017-07-09T17:07:56.663Z,63.35
2017-07-09T17:10:22.518Z,61.98
2017-07-09T17:12:48.330Z,59.16
2017-07-09T17:15:14.231Z,59.17
2017-07-09T17:17:40.249Z,59.99
2017-07-09T17:20:06.628Z,60.35
2017-07-09T17:22:32.438Z,62.52
2017-07-09T17:24:58.245Z,63.46
2017-07-09T17:27:24.090Z,63.66
2017-07-09T17:29:49.892Z,62.47
2017-07-09T17:32:15.894Z,64.73
2017-07-09T17:34:41.812Z,69.25
2017-07-09T17:37:07.631Z,67.92
2017-07-09T17:39:33.476Z,68.89
2017-07-09T17:41:59.265Z,70.82
2017-07-09T17:44:25.085Z,72.75
2017-07-09T17:46:50.930Z,72.89
2017-07-09T17:49:16.758Z,73.06
2017-07-09T17:51:42.566Z,73.15
2017-07-09T17:54:08.470Z,71.95
2017-07-09T17:56:34.387Z,72.01
2017-07-09T17:59:00.223Z,70.43
2017-07-09T18:01:26.075Z,70.88
2017-07-09T18:03:52.049Z,73.38
2017-07-09T18:06:18.120Z,73.88
2017-07-09T18:08:44.020Z,73.84
2017-07-09T18:11:09.893Z,72.34
2017-07-09T18:13:35.928Z,73.19
2017-07-09T18:16:01.961Z,72.98
2017-07-09T18:18:27.971Z,72.18
2017-07-09T18:20:53.980Z,71.64
2017-07-09T18:23:19.820Z,72.57
2017-07-09T18:25:45.794Z,70.98
2017-07-09T18:28:11.621Z,70.51
2017-07-09T18:30:37.685Z,69.94
2017-07-09T18:33:03.702Z,68.96
2017-07-09T18:35:29.706Z,69.64
2017-07-09T18:37:56.089Z,72.24
2017-07-09T18:40:21.955Z,73.51
2017-07-09T18:42:47.983Z,72.34
2017-07-09T18:45:14.044Z,73.74
2017-07-09T18:47:40.027Z,74.71
2017-07-09T18:50:05.862Z,74.50
2017-07-09T18:52:31.806Z,72.24
2017-07-09T18:54:57.719Z,69.38
2017-07-09T18:57:23.688Z,70.19
2017-07-09T18:59:49.511Z,68.79
2017-07-09T19:02:15.620Z,69.67
2017-07-09T19:04:41.495Z,70.62
2017-07-09T19:07:07.343Z,70.24
2017-07-09T19:09:33.245Z,70.65
2017-07-09T19:11:59.211Z,69.54
2017-07-09T19:14:25.049Z,69.75
2017-07-09T19:16:50.863Z,69.15
2017-07-09T19:19:16.688Z,68.53
2017-07-09T19:21:42.548Z,68.89
2017-07-09T19:24:08.505Z,69.17
2017-07-09T19:26:34.325Z,69.76
2017-07-09T19:29:00.614Z,69.71
2017-07-09T19:31:26.584Z,70.17
2017-07-09T19:33:52.403Z,70.72
2017-07-09T19:36:18.254Z,71.31
2017-07-09T19:38:44.066Z,71.38
2017-07-09T19:41:09.922Z,71.49
2017-07-09T19:43:35.816Z,71.90
2017-07-09T19:46:01.776Z,71.42
2017-07-09T19:48:27.659Z,71.51
2017-07-09T19:50:53.590Z,70.61
2017-07-09T19:53:19.562Z,70.21
2017-07-09T19:55:45.409Z,70.02
2017-07-09T19:58:11.473Z,69.41
2017-07-09T20:00:37.309Z,69.85
2017-07-09T20:03:03.191Z,69.39
2017-07-09T20:05:29.140Z,69.00
2017-07-09T20:07:55.036Z,69.17
2017-07-09T20:10:20.919Z,69.34
2017-07-09T20:12:46.769Z,69.86
2017-07-09T20:15:12.653Z,69.14
2017-07-09T20:17:38.556Z,69.00
2017-07-09T20:20:04.465Z,67.87
2017-07-09T20:22:30.358Z,67.06
2017-07-09T20:24:56.293Z,67.01
2017-07-09T20:27:22.190Z,68.54
2017-07-09T20:29:48.028Z,69.35
2017-07-09T20:32:13.852Z,69.97
2017-07-09T20:34:39.821Z,71.70
2017-07-09T20:37:05.689Z,71.78
2017-07-09T20:39:31.610Z,72.42
2017-07-09T20:41:57.657Z,73.68
2017-07-09T20:44:23.545Z,75.09
2017-07-09T20:46:49.394Z,74.69
2017-07-09T20:49:15.296Z,75.57
2017-07-09T20:51:41.237Z,76.75
2017-07-09T20:54:07.115Z,76.98
2017-07-09T20:56:33.107Z,77.70
2017-07-09T20:58:59.068Z,78.80
2017-07-09T21:01:24.974Z,79.07
2017-07-09T21:03:51.045Z,78.95
2017-07-09T21:06:16.932Z,80.45
2017-07-09T21:08:42.873Z,80.87
2017-07-09T21:11:08.821Z,81.81
2017-07-09T21:13:34.710Z,83.38
2017-07-09T21:16:00.729Z,83.03
2017-07-09T21:18:26.636Z,84.54
2017-07-09T21:20:52.647Z,85.12
2017-07-09T21:23:18.512Z,86.28
2017-07-09T21:25:44.383Z,85.61
2017-07-09T21:28:10.215Z,86.80
2017-07-09T21:30:36.136Z,84.84
2017-07-09T21:33:02.075Z,83.28
2017-07-09T21:35:27.982Z,83.84
2017-07-09T21:37:53.852Z,82.92
2017-07-09T21:40:19.710Z,83.36
2017-07-09T21:42:45.703Z,83.71
2017-07-09T21:45:11.553Z,84.50
2017-07-09T21:47:37.396Z,85.50
2017-07-09T21:50:03.330Z,85.19
2017-07-09T21:52:29.160Z,85.17
2017-07-09T21:54:55.071Z,85.95
2017-07-09T21:57:20.963Z,86.13
2017-07-09T21:59:46.815Z,86.05
2017-07-09T22:02:12.727Z,86.11
2017-07-09T22:04:38.685Z,85.10
2017-07-09T22:07:04.592Z,85.61
2017-07-09T22:09:30.558Z,85.35
2017-07-09T22:11:56.412Z,85.51
2017-07-09T22:14:22.344Z,85.49
2017-07-09T22:16:48.163Z,85.74
2017-07-09T22:19:14.033Z,86.19
2017-07-09T22:21:39.852Z,85.96
2017-07-09T22:24:05.863Z,86.41
2017-07-09T22:26:31.734Z,87.05
2017-07-09T22:28:57.760Z,87.92
2017-07-09T22:31:24.285Z,87.32
2017-07-09T22:33:50.133Z,86.41
2017-07-09T22:36:16.071Z,85.46
2017-07-09T22:38:42.753Z,84.56
2017-07-09T22:41:08.645Z,84.06
2017-07-09T22:43:35.493Z,84.50
2017-07-09T22:46:01.313Z,86.06
2017-07-09T22:48:27.184Z,86.01
2017-07-09T22:50:53.079Z,86.40
2017-07-09T22:53:18.921Z,84.44
2017-07-09T22:55:44.840Z,86.99
2017-07-09T22:58:11.143Z,88.00
2017-07-09T23:00:37.086Z,88.63
2017-07-09T23:03:03.808Z,88.58
2017-07-09T23:05:31.547Z,88.49
2017-07-09T23:07:57.473Z,88.67
2017-07-09T23:10:23.374Z,87.76
2017-07-09T23:12:49.408Z,87.67
2017-07-09T23:15:15.301Z,88.41
2017-07-09T23:17:41.175Z,86.85
2017-07-09T23:20:07.070Z,85.76
2017-07-09T23:22:32.935Z,87.16
2017-07-09T23:24:58.877Z,87.97
2017-07-09T23:27:24.772Z,87.64
2017-07-09T23:29:50.672Z,86.74
2017-07-09T23:32:16.549Z,86.98
2017-07-09T23:34:42.936Z,85.72
2017-07-09T23:37:08.766Z,86.41
2017-07-09T23:39:34.635Z,85.85
2017-07-09T23:42:00.467Z,85.49
2017-07-09T23:44:26.519Z,85.65
2017-07-09T23:46:52.473Z,84.84
2017-07-09T23:49:18.357Z,85.00
2017-07-09T23:51:44.304Z,84.71
2017-07-09T23:54:10.173Z,83.56
2017-07-09T23:56:35.998Z,82.84
2017-07-09T23:59:02.611Z,83.50
